Time;durP1;ratioP1;P1;durP2;ratioP2;P2;SDS_P1;SDS_P2;PMS_P1;PMS_P2;Temp;Humidity;BMP_temperature;BMP_pressure;BME280_temperature;BME280_humidity;BME280_pressure;Samples;Min_cycle;Max_cycle;Signal;HPM_P1;HPM_P2
2023/01/10 00:01:32;;;;;;;31.23;4.78;;;;;;;;;;5051083;28;20410;-68
2023/01/10 00:04:36;;;;;;;26.08;5.15;;;;;;;;;;5051195;28;20044;-69
2023/01/10 00:07:40;;;;;;;28.00;5.28;;;;;;;;;;5050714;28;20033;-69
2023/01/10 00:10:45;;;;;;;28.85;6.30;;;;;;;;;;5050930;28;20480;-68
2023/01/10 00:13:52;;;;;;;22.50;5.30;;;12.30;99.90;;;;;;5050899;28;20406;-69
2023/01/10 00:16:57;;;;;;;20.35;5.63;;;;;;;;;;5050771;28;20040;-69
2023/01/10 00:20:00;;;;;;;24.20;6.75;;;12.10;99.90;;;;;;5050987;28;20050;-68
2023/01/10 00:23:05;;;;;;;30.50;6.95;;;;;;;;;;5050802;28;20036;-70
2023/01/10 00:26:10;;;;;;;30.38;7.15;;;12.00;99.90;;;;;;5050673;28;20036;-69
2023/01/10 00:29:14;;;;;;;31.20;7.03;;;11.70;99.90;;;;;;5050671;28;20044;-69
2023/01/10 00:32:21;;;;;;;25.52;5.93;;;;;;;;;;5050478;28;20538;-70
2023/01/10 00:35:25;;;;;;;28.25;6.75;;;;;;;;;;5050398;28;20049;-68
2023/01/10 00:38:30;;;;;;;34.00;7.03;;;;;;;;;;5050751;28;20493;-69
2023/01/10 00:45:00;;;;;;;30.15;7.15;;;;;;;;;;5050142;28;20041;-69
2023/01/10 00:48:05;;;;;;;29.35;6.55;;;;;;;;;;5049445;28;20377;-69
2023/01/10 00:51:12;;;;;;;33.92;7.15;;;;;;;;;;5050327;28;20032;-69
2023/01/10 00:54:16;;;;;;;25.50;6.28;;;;;;;;;;5050352;28;20124;-69
2023/01/10 00:57:20;;;;;;;20.45;3.67;;;;;;;;;;5050370;28;20038;-69
2023/01/10 01:00:24;;;;;;;13.23;2.75;;;;;;;;;;5050290;28;20520;-68
2023/01/10 01:03:29;;;;;;;12.00;2.53;;;;;;;;;;5050339;28;20498;-69
2023/01/10 01:06:33;;;;;;;11.38;2.05;;;;;;;;;;5050113;28;20048;-69
2023/01/10 01:10:25;;;;;;;6.22;1.92;;;;;;;;;;5049525;28;20044;-69
2023/01/10 01:13:09;;;;;;;7.50;1.27;;;11.70;99.90;;;;;;5054354;28;20053;-69
2023/01/10 01:16:13;;;;;;;9.90;1.83;;;;;;;;;;5053982;28;20064;-69
2023/01/10 01:19:18;;;;;;;10.63;1.70;;;;;;;;;;5054374;28;20041;-68
2023/01/10 01:22:24;;;;;;;8.95;1.83;;;;;;;;;;5054246;28;20052;-69
2023/01/10 01:25:29;;;;;;;5.93;1.45;;;;;;;;;;5054028;28;20539;-68
2023/01/10 01:28:33;;;;;;;10.93;1.60;;;;;;;;;;5054216;28;20040;-68
2023/01/10 01:31:37;;;;;;;6.80;1.48;;;;;;;;;;5054095;28;20484;-68
2023/01/10 01:34:41;;;;;;;7.78;1.65;;;;;;;;;;5052795;28;20045;-68
2023/01/10 01:37:45;;;;;;;7.20;1.73;;;11.00;99.90;;;;;;5053611;28;20029;-69
2023/01/10 01:40:50;;;;;;;6.20;1.48;;;;;;;;;;5053540;28;20511;-68
2023/01/10 01:44:09;;;;;;;4.95;1.42;;;11.60;99.90;;;;;;5053565;28;20045;-69
2023/01/10 01:47:26;;;;;;;8.50;1.30;;;13.70;99.90;;;;;;5052501;28;20048;-69
2023/01/10 01:50:52;;;;;;;5.78;1.52;;;11.60;99.90;;;;;;5053709;28;20087;-68
2023/01/10 01:54:02;;;;;;;9.30;1.50;;;13.10;99.90;;;;;;5053273;28;20591;-69
2023/01/10 01:57:12;;;;;;;12.27;2.25;;;11.50;99.90;;;;;;5053411;28;20052;-68
2023/01/10 02:00:17;;;;;;;10.00;1.50;;;11.30;99.90;;;;;;5053434;28;20048;-68
2023/01/10 02:03:21;;;;;;;8.70;1.70;;;;;;;;;;5053299;28;20052;-67
2023/01/10 02:06:25;;;;;;;9.93;1.83;;;;;;;;;;5053812;28;20464;-69
2023/01/10 02:09:30;;;;;;;7.72;1.52;;;;;;;;;;5053250;28;20053;-69
2023/01/10 02:12:34;;;;;;;6.78;1.67;;;;;;;;;;5053377;28;20365;-68
2023/01/10 02:15:39;;;;;;;8.73;1.35;;;10.20;99.90;;;;;;5053088;28;20044;-68
2023/01/10 02:18:43;;;;;;;7.82;1.60;;;;;;;;;;5053034;28;20068;-69
2023/01/10 02:22:02;;;;;;;8.93;1.83;;;11.10;99.90;;;;;;5053008;28;20500;-68
2023/01/10 02:25:09;;;;;;;11.10;1.67;;;11.00;99.90;;;;;;5052938;28;20048;-68
2023/01/10 02:28:22;;;;;;;7.57;2.25;;;10.10;99.90;;;;;;5052926;28;20048;-68
2023/01/10 02:31:47;;;;;;;9.73;2.22;;;10.90;99.90;;;;;;5052785;28;20044;-68
2023/01/10 02:34:57;;;;;;;9.30;2.13;;;11.00;99.90;;;;;;5052499;28;20060;-68
2023/01/10 02:38:25;;;;;;;6.72;1.23;;;10.80;99.90;;;;;;5052416;28;20540;-68
2023/01/10 02:41:40;;;;;;;8.07;1.95;;;10.80;99.90;;;;;;5052714;28;20041;-68
2023/01/10 02:45:08;;;;;;;7.72;2.38;;;10.70;99.90;;;;;;5052402;28;20032;-68
2023/01/10 02:48:12;;;;;;;6.80;1.35;;;10.80;99.90;;;;;;5052748;28;20044;-69
2023/01/10 02:51:26;;;;;;;11.30;1.70;;;10.80;99.90;;;;;;5052323;28;20043;-69
2023/01/10 02:54:30;;;;;;;9.38;2.00;;;10.90;99.90;;;;;;5052357;28;20055;-69
2023/01/10 02:57:34;;;;;;;7.05;1.30;;;;;;;;;;5052294;28;20416;-68
2023/01/10 03:00:53;;;;;;;10.73;1.67;;;10.80;99.90;;;;;;5052338;28;20049;-68
2023/01/10 03:03:58;;;;;;;5.05;1.75;;;;;;;;;;5051503;28;20043;-69
2023/01/10 03:07:32;;;;;;;5.65;1.75;;;10.60;99.90;;;;;;5052225;28;20037;-68
2023/01/10 03:10:59;;;;;;;11.52;1.85;;;10.70;99.90;;;;;;5052141;28;20052;-68
2023/01/10 03:14:03;;;;;;;4.65;1.25;;;;;;;;;;5051877;28;20127;-68
2023/01/10 03:17:10;;;;;;;9.30;1.73;;;10.60;99.90;;;;;;5051856;28;20366;-68
2023/01/10 03:20:18;;;;;;;7.05;1.80;;;10.80;99.90;;;;;;5052118;28;20052;-68
2023/01/10 03:23:24;;;;;;;11.23;1.75;;;10.60;99.90;;;;;;5051797;28;20491;-68
2023/01/10 03:26:50;;;;;;;5.07;1.80;;;10.60;99.90;;;;;;5051621;28;20040;-68
2023/01/10 03:30:25;;;;;;;4.43;1.42;;;10.60;99.90;;;;;;5051505;28;20064;-69
2023/01/10 03:33:31;;;;;;;9.57;1.95;;;10.50;99.90;;;;;;5051560;28;20527;-68
2023/01/10 03:36:40;;;;;;;11.40;2.00;;;10.40;99.90;;;;;;5051591;28;20051;-69
2023/01/10 03:39:52;;;;;;;8.98;2.28;;;10.30;99.90;;;;;;5051510;28;20046;-69
2023/01/10 03:46:53;;;;;;;8.93;2.05;;;10.70;99.90;;;;;;5051138;28;20063;-69
2023/01/10 03:50:28;;;;;;;12.23;2.38;;;11.00;99.90;;;;;;5051202;28;20108;-68
2023/01/10 03:53:33;;;;;;;12.73;2.67;;;10.10;99.90;;;;;;5051257;28;20047;-69
2023/01/10 03:56:49;;;;;;;9.95;2.30;;;10.30;99.90;;;;;;5051202;28;20055;-69
2023/01/10 03:59:56;;;;;;;7.70;2.35;;;10.30;99.90;;;;;;5051426;28;20059;-69
2023/01/10 04:03:01;;;;;;;8.70;2.40;;;;;;;;;;5051093;28;20039;-70
2023/01/10 04:06:05;;;;;;;7.43;3.03;;;10.10;99.90;;;;;;5050972;28;20029;-68
2023/01/10 04:09:10;;;;;;;9.85;3.03;;;;;;;;;;5050848;28;20052;-68
2023/01/10 04:12:14;;;;;;;8.88;2.83;;;;;;;;;;5051132;28;20045;-68
2023/01/10 04:15:19;;;;;;;10.93;3.22;;;8.80;99.90;;;;;;5050594;28;20045;-68
2023/01/10 04:18:23;;;;;;;13.73;2.63;;;9.90;99.90;;;;;;5049814;28;20118;-69
2023/01/10 04:21:29;;;;;;;12.30;3.25;;;;;;;;;;5050669;28;20044;-69
2023/01/10 04:24:33;;;;;;;14.55;4.30;;;;;;;;;;5050721;28;20041;-69
2023/01/10 04:27:38;;;;;;;14.52;4.05;;;;;;;;;;5050999;28;20512;-69
2023/01/10 04:30:42;;;;;;;19.15;4.35;;;;;;;;;;5050172;28;20048;-69
2023/01/10 04:33:46;;;;;;;16.75;5.53;;;9.30;99.90;;;;;;5049922;28;20041;-68
2023/01/10 04:36:50;;;;;;;17.02;5.43;;;9.60;99.90;;;;;;5050615;28;20051;-69
2023/01/10 04:39:54;;;;;;;13.48;5.22;;;9.70;99.90;;;;;;5050314;28;20036;-68
2023/01/10 04:42:58;;;;;;;19.98;4.72;;;8.60;99.90;;;;;;5050660;28;20515;-68
2023/01/10 04:46:02;;;;;;;14.85;4.55;;;;;;;;;;5049924;28;20055;-68
2023/01/10 04:49:08;;;;;;;13.57;4.22;;;;;;;;;;5049563;28;20048;-69
2023/01/10 04:52:12;;;;;;;13.77;4.10;;;;;;;;;;5050537;28;20033;-69
2023/01/10 04:55:17;;;;;;;14.57;3.90;;;;;;;;;;5050226;28;20045;-68
2023/01/10 04:58:21;;;;;;;13.35;3.28;;;;;;;;;;5050641;28;20056;-69
2023/01/10 05:01:26;;;;;;;12.27;3.65;;;;;;;;;;5050366;28;20044;-69
2023/01/10 05:04:30;;;;;;;8.90;3.85;;;;;;;;;;5049680;28;20527;-68
2023/01/10 05:07:35;;;;;;;9.77;3.53;;;;;;;;;;5050294;28;20041;-69
2023/01/10 05:10:39;;;;;;;13.48;3.78;;;10.10;99.90;;;;;;5049792;28;20574;-69
2023/01/10 05:13:44;;;;;;;14.23;4.18;;;;;;;;;;5050444;28;20119;-69
2023/01/10 05:16:48;;;;;;;10.27;4.15;;;;;;;;;;5050232;28;20056;-69
2023/01/10 05:19:52;;;;;;;12.23;3.72;;;10.00;99.90;;;;;;5050414;28;20025;-68
2023/01/10 05:22:56;;;;;;;10.20;3.28;;;;;;;;;;5050114;28;20120;-68
2023/01/10 05:26:12;;;;;;;7.65;3.33;;;10.00;99.90;;;;;;5050465;28;20033;-67
2023/01/10 05:29:17;;;;;;;13.13;3.67;;;;;;;;;;5050304;28;20052;-69
2023/01/10 05:32:21;;;;;;;9.45;3.10;;;10.00;99.90;;;;;;5050025;28;20503;-69
2023/01/10 05:35:25;;;;;;;9.02;3.13;;;;;;;;;;5049962;28;20102;-69
2023/01/10 05:38:30;;;;;;;9.15;3.05;;;9.80;99.90;;;;;;5049929;28;20504;-68
2023/01/10 05:41:34;;;;;;;13.18;4.82;;;;;;;;;;5050192;28;20493;-69
2023/01/10 05:44:38;;;;;;;9.10;4.60;;;10.10;99.90;;;;;;5050088;28;20052;-69
2023/01/10 05:47:42;;;;;;;13.85;4.20;;;10.70;99.90;;;;;;5049560;28;20032;-69
2023/01/10 05:50:48;;;;;;;10.48;4.13;;;9.50;99.90;;;;;;5048937;28;20040;-69
2023/01/10 05:53:54;;;;;;;11.13;2.80;;;;;;;;;;5050071;28;20392;-69
2023/01/10 05:56:58;;;;;;;10.15;3.25;;;;;;;;;;5049412;28;20041;-69
2023/01/10 06:00:03;;;;;;;9.50;3.25;;;10.20;99.90;;;;;;5053894;28;20033;-68
2023/01/10 06:03:15;;;;;;;11.23;4.80;;;10.00;99.90;;;;;;5053450;28;20120;-67
2023/01/10 06:06:20;;;;;;;11.20;5.13;;;;;;;;;;5053764;28;20036;-68
2023/01/10 06:09:24;;;;;;;12.60;4.53;;;8.60;99.90;;;;;;5053348;28;20060;-68
2023/01/10 06:12:28;;;;;;;12.52;3.95;;;;;;;;;;5053361;28;20132;-68
2023/01/10 06:15:33;;;;;;;11.07;3.40;;;;;;;;;;5052456;28;20053;-69
2023/01/10 06:18:37;;;;;;;7.20;2.60;;;;;;;;;;5053611;28;20554;-69
2023/01/10 06:21:41;;;;;;;12.00;2.92;;;;;;;;;;5060370;28;20508;-68
2023/01/10 06:24:46;;;;;;;11.32;3.80;;;;;;;;;;5053421;28;20460;-68
2023/01/10 06:27:50;;;;;;;9.55;3.78;;;;;;;;;;5041050;28;20036;-69
2023/01/10 06:30:54;;;;;;;9.45;4.53;;;;;;;;;;5053192;28;20049;-66
2023/01/10 06:33:58;;;;;;;9.68;4.25;;;10.80;99.90;;;;;;5053268;28;20033;-70
2023/01/10 06:37:02;;;;;;;8.23;4.63;;;8.90;99.90;;;;;;5053363;28;20056;-71
2023/01/10 06:40:07;;;;;;;12.88;4.60;;;9.70;99.90;;;;;;5053219;28;20032;-72
2023/01/10 06:43:11;;;;;;;11.32;5.65;;;;;;;;;;5052837;28;20048;-71
2023/01/10 06:46:18;;;;;;;10.95;4.72;;;9.60;99.90;;;;;;5052788;28;20040;-70
2023/01/10 06:49:22;;;;;;;19.65;5.93;;;;;;;;;;5052763;28;20515;-70
2023/01/10 06:52:26;;;;;;;11.52;4.93;;;;;;;;;;5053086;28;20396;-71
2023/01/10 06:55:31;;;;;;;16.50;5.35;;;;;;;;;;5052504;28;20044;-72
2023/01/10 06:58:37;;;;;;;9.85;3.97;;;9.80;99.90;;;;;;5052760;28;20036;-71
2023/01/10 07:01:42;;;;;;;10.70;3.85;;;;;;;;;;5052797;28;20397;-71
2023/01/10 07:04:47;;;;;;;10.55;3.53;;;9.10;99.90;;;;;;5053534;28;20033;-70
2023/01/10 07:07:51;;;;;;;9.60;3.28;;;9.40;99.90;;;;;;5053354;28;20503;-72
2023/01/10 07:10:57;;;;;;;10.30;3.88;;;9.90;99.90;;;;;;5054405;28;20045;-71
2023/01/10 07:14:03;;;;;;;12.15;4.18;;;;;;;;;;5054021;28;20495;-73
2023/01/10 07:17:07;;;;;;;16.63;5.35;;;12.00;99.90;;;;;;5052526;28;20051;-73
2023/01/10 07:20:12;;;;;;;9.40;5.00;;;;;;;;;;5052839;28;20044;-71
2023/01/10 07:23:16;;;;;;;13.68;5.80;;;9.20;99.90;;;;;;5053048;28;20033;-71
2023/01/10 07:26:20;;;;;;;14.27;5.97;;;;;;;;;;5054001;28;20397;-69
2023/01/10 07:29:24;;;;;;;13.90;5.88;;;;;;;;;;5053223;28;20037;-71
2023/01/10 07:32:29;;;;;;;14.88;6.30;;;;;;;;;;5052392;28;20064;-70
2023/01/10 07:35:33;;;;;;;17.45;7.80;;;;;;;;;;5053167;28;20658;-70
2023/01/10 07:38:37;;;;;;;17.58;7.85;;;9.90;99.90;;;;;;5052554;28;20393;-70
2023/01/10 07:41:42;;;;;;;14.93;7.03;;;;;;;;;;5052312;28;20040;-70
2023/01/10 07:44:46;;;;;;;12.32;6.72;;;;;;;;;;5050904;28;20037;-69
2023/01/10 07:47:54;;;;;;;17.00;7.30;;;10.00;99.90;;;;;;5052734;28;20069;-71
2023/01/10 07:50:59;;;;;;;17.58;6.78;;;10.30;99.90;;;;;;5052099;28;20044;-70
2023/01/10 07:54:03;;;;;;;18.27;7.00;;;;;;;;;;5052013;28;20071;-69
2023/01/10 07:57:07;;;;;;;28.85;7.72;;;11.10;99.90;;;;;;5051731;28;20637;-68
2023/01/10 08:00:14;;;;;;;19.45;7.70;;;10.70;99.90;;;;;;5051776;28;20052;-69
2023/01/10 08:03:18;;;;;;;13.00;6.47;;;11.10;99.90;;;;;;5051744;28;20044;-68
2023/01/10 08:06:23;;;;;;;15.77;6.80;;;11.30;99.90;;;;;;5051217;28;20063;-68
2023/01/10 08:09:28;;;;;;;13.43;5.95;;;11.20;99.90;;;;;;5051686;28;20591;-70
2023/01/10 08:12:32;;;;;;;13.02;5.75;;;11.30;99.90;;;;;;5052041;28;20044;-72
2023/01/10 08:15:37;;;;;;;20.02;6.45;;;11.30;99.90;;;;;;5050268;28;20052;-69
2023/01/10 08:18:42;;;;;;;17.65;5.53;;;;;;;;;;5050902;28;20039;-68
2023/01/10 08:21:46;;;;;;;16.42;6.65;;;;;;;;;;5050992;28;20509;-69
2023/01/10 08:24:50;;;;;;;15.23;5.53;;;;;;;;;;5050949;28;20033;-69
2023/01/10 08:27:55;;;;;;;13.60;5.47;;;;;;;;;;5050047;28;20043;-70
2023/01/10 08:31:07;;;;;;;15.50;5.75;;;12.70;99.90;;;;;;5051303;28;20052;-71
2023/01/10 08:34:13;;;;;;;19.02;5.15;;;;;;;;;;5050408;28;20044;-71
2023/01/10 08:37:17;;;;;;;19.50;5.53;;;13.30;99.90;;;;;;5050318;28;20111;-73
2023/01/10 08:40:22;;;;;;;17.55;4.82;;;;;;;;;;5050064;28;20040;-69
2023/01/10 08:43:26;;;;;;;21.70;6.38;;;;;;;;;;5050102;28;20043;-72
2023/01/10 08:46:31;;;;;;;10.88;5.13;;;;;;;;;;5050441;28;20037;-71
2023/01/10 08:49:34;;;;;;;16.88;5.93;;;14.40;99.90;;;;;;5051533;28;20052;-72
2023/01/10 08:52:39;;;;;;;14.98;5.95;;;16.80;99.90;;;;;;5050741;28;20112;-72
2023/01/10 08:55:43;;;;;;;17.25;6.20;;;;;;;;;;5050985;28;20056;-72
2023/01/10 08:58:47;;;;;;;17.67;5.63;;;;;;;;;;5050794;28;20033;-72
2023/01/10 09:01:51;;;;;;;17.63;4.65;;;14.60;99.90;;;;;;5050708;28;20045;-72
2023/01/10 09:04:55;;;;;;;13.43;5.70;;;14.80;99.90;;;;;;5050835;28;20048;-72
2023/01/10 09:08:02;;;;;;;17.65;6.25;;;14.70;99.70;;;;;;5050603;28;20056;-72
2023/01/10 09:11:06;;;;;;;14.35;5.70;;;14.90;99.60;;;;;;5050814;28;20492;-74
2023/01/10 09:14:10;;;;;;;12.82;4.35;;;14.70;97.60;;;;;;5050615;28;20495;-71
2023/01/10 09:17:14;;;;;;;21.33;5.15;;;14.40;97.80;;;;;;5050374;28;20056;-72
2023/01/10 09:20:18;;;;;;;14.48;3.90;;;14.50;98.20;;;;;;5050576;28;20052;-73
2023/01/10 09:23:22;;;;;;;14.82;4.38;;;14.40;97.60;;;;;;5050659;28;20052;-71
2023/01/10 09:26:26;;;;;;;15.60;3.67;;;14.70;98.00;;;;;;5049777;28;20036;-72
2023/01/10 09:29:30;;;;;;;13.85;4.32;;;14.70;98.20;;;;;;5049432;28;20056;-73
2023/01/10 09:32:34;;;;;;;8.80;2.60;;;15.10;98.50;;;;;;5052356;28;20468;-73
2023/01/10 09:35:40;;;;;;;12.80;4.00;;;15.30;98.00;;;;;;5054030;28;20052;-71
2023/01/10 09:38:44;;;;;;;17.15;4.55;;;15.40;97.00;;;;;;5054228;28;20056;-73
2023/01/10 09:42:32;;;;;;;10.45;3.00;;;15.40;97.30;;;;;;5054349;28;20395;-73
2023/01/10 09:46:11;;;;;;;8.13;2.40;;;15.10;95.20;;;;;;5047396;28;20044;-72
2023/01/10 09:49:54;;;;;;;7.65;2.80;;;13.40;92.60;;;;;;5053806;28;20048;-72
2023/01/10 09:53:09;;;;;;;9.30;2.55;;;13.70;93.30;;;;;;5053980;28;20392;-73
2023/01/10 09:56:15;;;;;;;17.10;2.70;;;13.70;94.70;;;;;;5053814;28;20071;-73
2023/01/10 09:59:23;;;;;;;16.33;3.42;;;13.70;95.00;;;;;;5053109;28;20040;-72
2023/01/10 10:02:41;;;;;;;8.02;2.40;;;13.50;94.60;;;;;;5041494;28;20044;-71
2023/01/10 10:05:45;;;;;;;7.57;3.13;;;16.30;95.70;;;;;;5053982;28;20044;-73
2023/01/10 10:08:51;;;;;;;5.70;2.53;;;13.50;94.50;;;;;;5053850;28;20056;-72
2023/01/10 10:12:23;;;;;;;6.90;2.33;;;11.70;94.30;;;;;;5054285;28;20045;-72
2023/01/10 10:15:38;;;;;;;14.85;2.67;;;12.30;94.70;;;;;;5053725;28;20408;-72
2023/01/10 10:18:48;;;;;;;7.65;2.95;;;14.10;95.00;;;;;;5052713;28;20048;-72
2023/01/10 10:22:11;;;;;;;6.15;2.88;;;12.90;94.80;;;;;;5052650;28;20036;-74
2023/01/10 10:25:52;;;;;;;6.90;2.50;;;11.20;94.00;;;;;;5053340;28;20067;-72
2023/01/10 10:29:39;;;;;;;13.25;3.60;;;13.50;95.20;;;;;;5053067;28;20048;-72
2023/01/10 10:32:49;;;;;;;11.32;3.35;;;13.30;95.60;;;;;;5052265;28;20048;-72
2023/01/10 10:36:10;;;;;;;12.00;3.42;;;13.30;97.40;;;;;;5054083;28;20056;-71
2023/01/10 10:39:22;;;;;;;8.25;2.92;;;13.20;95.80;;;;;;5053168;28;20555;-72
2023/01/10 10:42:34;;;;;;;7.97;3.42;;;13.10;96.30;;;;;;5053558;28;20047;-73
2023/01/10 10:45:46;;;;;;;14.98;3.40;;;13.30;97.00;;;;;;5053171;28;20055;-71
2023/01/10 10:48:57;;;;;;;16.10;3.95;;;13.30;97.00;;;;;;5052861;28;20040;-72
2023/01/10 10:52:09;;;;;;;9.05;3.00;;;13.50;96.90;;;;;;5051972;28;20060;-71
2023/01/10 10:55:16;;;;;;;9.93;3.70;;;13.60;96.70;;;;;;5052269;28;20036;-72
2023/01/10 10:58:19;;;;;;;6.10;2.70;;;13.70;96.60;;;;;;5052513;28;20040;-72
2023/01/10 11:01:23;;;;;;;11.43;3.20;;;13.70;96.30;;;;;;5052677;28;20092;-73
2023/01/10 11:04:30;;;;;;;8.25;3.60;;;13.90;96.10;;;;;;5052947;28;20048;-72
2023/01/10 11:07:36;;;;;;;6.32;2.70;;;13.90;94.00;;;;;;5052546;28;20392;-71
2023/01/10 11:10:44;;;;;;;6.50;2.65;;;13.90;94.60;;;;;;5052733;28;20044;-72
2023/01/10 11:14:03;;;;;;;4.18;1.70;;;14.10;94.60;;;;;;5052529;28;20052;-73
2023/01/10 11:26:38;;;;;;;2.05;1.20;;;15.90;91.70;;;;;;5057938;28;20048;-72
2023/01/10 11:29:47;;;;;;;8.70;2.03;;;15.10;92.30;;;;;;5051994;28;20036;-73
2023/01/10 11:32:55;;;;;;;3.45;1.98;;;15.50;92.00;;;;;;5052068;28;20052;-72
2023/01/10 11:36:08;;;;;;;2.85;1.17;;;15.60;90.10;;;;;;5051337;28;20048;-71
2023/01/10 11:39:15;;;;;;;3.03;1.00;;;15.50;89.90;;;;;;5051952;28;20044;-71
2023/01/10 11:42:23;;;;;;;1.40;1.00;;;15.60;91.60;;;;;;5051027;28;20036;-71
2023/01/10 11:45:30;;;;;;;2.85;1.40;;;15.50;92.00;;;;;;5050946;28;20048;-71
2023/01/10 11:48:43;;;;;;;1.88;1.00;;;15.60;91.80;;;;;;5051297;28;20048;-72
2023/01/10 11:51:55;;;;;;;2.15;1.20;;;15.60;91.70;;;;;;5051989;28;20503;-73
2023/01/10 11:55:00;;;;;;;1.48;0.60;;;15.70;90.30;;;;;;5050715;28;20048;-72
2023/01/10 11:58:12;;;;;;;6.50;1.90;;;15.60;89.40;;;;;;5051907;28;20051;-72
2023/01/10 12:01:55;;;;;;;9.45;3.60;;;15.50;89.10;;;;;;5050397;28;20036;-71
2023/01/10 12:05:07;;;;;;;3.65;2.38;;;16.20;89.30;;;;;;5048806;28;20052;-71
2023/01/10 12:08:27;;;;;;;1.92;1.65;;;14.80;88.90;;;;;;5048281;28;20048;-72
2023/01/10 12:11:34;;;;;;;1.92;1.30;;;14.70;90.80;;;;;;5049959;28;20428;-71
2023/01/10 12:14:38;;;;;;;1.73;0.90;;;14.60;91.00;;;;;;5048416;28;20067;-70
2023/01/10 12:17:42;;;;;;;0.98;0.80;;;17.10;90.50;;;;;;5049675;28;20060;-72
2023/01/10 12:20:50;;;;;;;6.45;1.00;;;14.40;90.30;;;;;;5049621;28;20499;-69
2023/01/10 12:23:58;;;;;;;4.72;1.60;;;11.80;89.70;;;;;;5050297;28;20055;-73
2023/01/10 12:27:03;;;;;;;2.88;1.38;;;14.10;91.60;;;;;;5048794;28;20067;-73
2023/01/10 12:30:26;;;;;;;3.30;1.00;;;17.10;93.50;;;;;;5050468;28;20396;-72
2023/01/10 12:33:39;;;;;;;7.50;2.38;;;14.20;90.50;;;;;;5050981;28;20678;-72
2023/01/10 12:37:09;;;;;;;1.55;0.80;;;14.20;91.00;;;;;;5050616;28;20056;-72
2023/01/10 12:40:52;;;;;;;1.88;1.25;;;17.00;90.10;;;;;;5051129;28;20044;-72
2023/01/10 12:44:11;;;;;;;1.48;1.00;;;;;;;;;;5051076;28;20066;-72
2023/01/10 12:48:00;;;;;;;1.83;1.10;;;14.50;90.10;;;;;;5051094;28;20041;-72
2023/01/10 12:51:06;;;;;;;3.10;0.88;;;16.20;90.10;;;;;;5036296;28;20044;-69
2023/01/10 12:54:30;;;;;;;1.23;0.77;;;14.20;91.40;;;;;;5050645;28;20032;-71
2023/01/10 12:57:38;;;;;;;3.42;1.05;;;13.90;91.80;;;;;;5049369;28;20059;-71
2023/01/10 13:00:45;;;;;;;2.03;1.10;;;14.30;92.40;;;;;;5050680;28;20357;-71
2023/01/10 13:03:55;;;;;;;3.25;1.50;;;14.40;93.70;;;;;;5050677;28;20044;-72
2023/01/10 13:07:00;;;;;;;2.30;1.33;;;14.20;93.00;;;;;;5051979;28;20055;-72
2023/01/10 13:10:06;;;;;;;2.80;0.90;;;17.80;92.20;;;;;;5054928;28;20393;-72
2023/01/10 13:13:41;;;;;;;2.13;1.15;;;14.30;92.60;;;;;;5055003;28;20040;-71
2023/01/10 13:16:49;;;;;;;2.65;1.23;;;14.10;91.70;;;;;;5054500;28;20055;-72
2023/01/10 13:20:16;;;;;;;2.17;1.35;;;14.10;92.40;;;;;;5054622;28;20044;-72
2023/01/10 13:23:29;;;;;;;4.15;1.02;;;14.10;92.30;;;;;;5054839;28;20393;-70
2023/01/10 13:26:51;;;;;;;2.88;0.75;;;14.20;93.80;;;;;;5054435;28;20047;-70
2023/01/10 13:29:56;;;;;;;3.97;1.10;;;14.30;93.00;;;;;;5054377;28;20044;-69
2023/01/10 13:33:23;;;;;;;1.45;0.77;;;14.30;92.30;;;;;;5054394;28;20044;-70
2023/01/10 13:37:02;;;;;;;2.58;1.15;;;14.20;93.10;;;;;;5053038;28;20056;-72
2023/01/10 13:40:07;;;;;;;3.22;1.00;;;14.30;91.80;;;;;;5052517;28;20052;-70
2023/01/10 13:43:33;;;;;;;5.97;1.17;;;14.00;93.10;;;;;;5052659;28;20040;-73
2023/01/10 13:46:40;;;;;;;5.97;2.45;;;14.50;90.80;;;;;;5052725;28;20388;-70
2023/01/10 13:49:44;;;;;;;2.95;1.30;;;15.80;90.40;;;;;;5052868;28;20048;-71
2023/01/10 13:52:49;;;;;;;3.42;1.80;;;14.40;90.60;;;;;;5054347;28;20042;-70
2023/01/10 13:55:56;;;;;;;3.22;1.67;;;14.30;90.50;;;;;;5054104;28;20150;-70
2023/01/10 14:02:28;;;;;;;1.87;1.23;;;14.00;90.70;;;;;;5041457;28;20495;-70
2023/01/10 14:05:33;;;;;;;1.88;1.25;;;;;;;;;;5053830;28;20044;-71
2023/01/10 14:08:38;;;;;;;3.97;1.42;;;14.30;90.80;;;;;;5053484;28;20057;-70
2023/01/10 14:11:42;;;;;;;2.22;1.58;;;14.30;90.70;;;;;;5053972;28;20048;-70
2023/01/10 14:14:56;;;;;;;2.70;1.05;;;14.20;90.00;;;;;;5053528;28;20044;-71
2023/01/10 14:18:38;;;;;;;2.80;1.17;;;14.30;86.10;;;;;;5052566;28;20049;-70
2023/01/10 14:21:42;;;;;;;3.75;1.20;;;15.70;90.10;;;;;;5053679;28;20122;-70
2023/01/10 14:24:51;;;;;;;2.10;1.08;;;14.20;90.00;;;;;;5053166;28;20044;-71
2023/01/10 14:27:57;;;;;;;2.92;1.15;;;14.20;88.60;;;;;;5053553;28;20052;-69
2023/01/10 14:31:08;;;;;;;1.80;1.25;;;14.20;90.00;;;;;;5053137;28;20521;-71
2023/01/10 14:34:20;;;;;;;5.50;1.77;;;14.20;86.30;;;;;;5053200;28;20361;-71
2023/01/10 14:37:30;;;;;;;6.80;2.25;;;18.00;92.40;;;;;;5052883;28;20064;-71
2023/01/10 14:40:39;;;;;;;3.88;2.13;;;15.50;87.30;;;;;;5053054;28;20112;-70
2023/01/10 14:43:56;;;;;;;2.45;1.30;;;14.00;85.70;;;;;;5053226;28;20048;-71
2023/01/10 14:47:03;;;;;;;3.55;1.10;;;;;;;;;;5052846;28;20091;-71
2023/01/10 14:50:26;;;;;;;7.78;1.30;;;14.20;85.90;;;;;;5052883;28;20037;-71
2023/01/10 14:53:31;;;;;;;2.38;1.40;;;;;;;;;;5052785;28;20043;-72
2023/01/10 14:56:43;;;;;;;5.47;2.22;;;14.00;89.60;;;;;;5052610;28;20045;-70
2023/01/10 14:59:49;;;;;;;4.28;2.15;;;13.30;87.80;;;;;;5052848;28;20040;-70
2023/01/10 15:02:53;;;;;;;11.27;4.95;;;13.90;85.70;;;;;;5051995;28;20056;-69
2023/01/10 15:05:57;;;;;;;7.88;3.28;;;14.40;85.40;;;;;;5052721;28;20055;-70
2023/01/10 15:09:02;;;;;;;3.35;1.90;;;14.00;85.10;;;;;;5052244;28;20055;-72
2023/01/10 15:12:11;;;;;;;2.95;1.10;;;13.90;86.80;;;;;;5052649;28;20040;-71
2023/01/10 15:15:19;;;;;;;4.45;1.95;;;13.70;83.70;;;;;;5052238;28;20056;-70
2023/01/10 15:18:43;;;;;;;4.68;1.50;;;13.70;83.60;;;;;;5052495;28;20063;-70
2023/01/10 15:21:47;;;;;;;3.95;1.50;;;13.70;84.50;;;;;;5052152;28;20048;-71
2023/01/10 15:25:17;;;;;;;3.00;2.22;;;12.00;85.00;;;;;;5050977;28;20040;-71
2023/01/10 15:28:21;;;;;;;4.47;2.10;;;;;;;;;;5052126;28;20060;-71
2023/01/10 15:31:27;;;;;;;5.25;2.10;;;12.50;86.80;;;;;;5051913;28;20037;-71
2023/01/10 15:34:31;;;;;;;8.90;2.53;;;14.60;85.30;;;;;;5052100;28;20040;-71
2023/01/10 15:37:44;;;;;;;5.53;2.60;;;13.50;83.20;;;;;;5051673;28;20072;-70
2023/01/10 15:40:56;;;;;;;3.38;1.80;;;13.50;83.40;;;;;;5051836;28;20511;-70
2023/01/10 15:44:47;;;;;;;4.00;1.83;;;13.40;82.90;;;;;;5050759;28;20052;-71
2023/01/10 15:47:53;;;;;;;5.90;2.03;;;13.40;83.50;;;;;;5051710;28;20040;-70
2023/01/10 15:51:00;;;;;;;5.63;3.15;;;;;;;;;;5051920;28;20040;-69
2023/01/10 15:54:31;;;;;;;6.00;4.55;;;13.50;86.40;;;;;;5051555;28;20037;-71
2023/01/10 15:57:36;;;;;;;7.47;3.28;;;13.20;86.60;;;;;;5051695;28;20484;-70
2023/01/10 16:00:48;;;;;;;8.73;3.72;;;13.40;87.70;;;;;;5051291;28;20044;-70
2023/01/10 16:03:55;;;;;;;8.80;3.30;;;13.20;87.80;;;;;;5051258;28;20040;-70
2023/01/10 16:07:32;;;;;;;10.02;4.70;;;13.10;87.60;;;;;;5051480;28;20385;-70
2023/01/10 16:10:37;;;;;;;13.23;5.20;;;13.10;88.20;;;;;;5050892;28;20100;-69
2023/01/10 16:13:41;;;;;;;14.95;5.00;;;;;;;;;;5049920;28;20047;-69
2023/01/10 16:16:47;;;;;;;16.98;5.70;;;10.10;87.30;;;;;;5048383;28;20049;-68
2023/01/10 16:19:52;;;;;;;8.43;4.20;;;12.20;88.40;;;;;;5050260;28;20047;-68
2023/01/10 16:22:57;;;;;;;16.30;5.55;;;11.20;87.10;;;;;;5050320;28;20043;-71
2023/01/10 16:26:04;;;;;;;11.18;6.15;;;12.90;87.40;;;;;;5050899;28;20044;-68
2023/01/10 16:29:10;;;;;;;18.88;7.72;;;12.80;87.70;;;;;;5050982;28;20389;-69
2023/01/10 16:32:15;;;;;;;16.70;7.53;;;12.70;87.30;;;;;;5051118;28;20516;-68
2023/01/10 16:35:22;;;;;;;15.55;7.20;;;14.80;88.20;;;;;;5050798;28;20055;-69
2023/01/10 16:38:27;;;;;;;20.23;8.18;;;11.40;87.10;;;;;;5050830;28;20532;-67
2023/01/10 16:44:54;;;;;;;18.05;7.60;;;;;;;;;;5050589;28;20469;-68
2023/01/10 16:48:00;;;;;;;32.45;9.85;;;;;;;;;;5050892;28;20397;-68
2023/01/10 16:51:20;;;;;;;28.35;12.75;;;12.70;89.50;;;;;;5050220;28;20032;-68
2023/01/10 16:54:24;;;;;;;63.55;23.67;;;;;;;;;;5050697;28;20052;-68
2023/01/10 16:57:28;;;;;;;44.78;21.77;;;15.90;90.90;;;;;;5050350;28;20064;-69
2023/01/10 17:00:32;;;;;;;47.65;18.90;;;;;;;;;;5050745;28;20523;-70
2023/01/10 17:03:36;;;;;;;30.50;17.42;;;;;;;;;;5050650;28;20044;-69
2023/01/10 17:06:41;;;;;;;35.75;16.92;;;;;;;;;;5050836;28;20048;-70
2023/01/10 17:09:46;;;;;;;35.85;17.95;;;;;;;;;;5050673;28;20060;-71
2023/01/10 17:12:51;;;;;;;36.60;19.35;;;;;;;;;;5050884;28;20052;-69
2023/01/10 17:15:54;;;;;;;26.85;17.02;;;12.30;91.30;;;;;;5050268;28;20044;-72
2023/01/10 17:18:59;;;;;;;39.42;15.70;;;;;;;;;;5050868;28;20060;-72
2023/01/10 17:22:04;;;;;;;33.05;16.33;;;;;;;;;;5050421;28;20044;-70
2023/01/10 17:25:15;;;;;;;28.13;14.70;;;12.00;92.50;;;;;;5050671;28;20060;-72
2023/01/10 17:28:19;;;;;;;41.20;15.80;;;;;;;;;;5050214;28;20040;-69